Home > Products > Valid Products > TAF

000
FTUS42 KJAX 210500
TAFCRG
TAF
KCRG 210534Z 2106/2206 03007KT 6SM BR VCSH OVC006
     FM211000 02005KT 5SM BR VCSH OVC005
     FM211700 03006KT 6SM BR VCSH SCT005 OVC010
     FM212300 04003KT 5SM -RA BR BKN007=



000
FTUS42 KJAX 210500
TAFGNV
TAF
KGNV 210534Z 2106/2206 05004KT 6SM BR OVC006
     FM210900 04003KT 3SM BR OVC004
     FM211500 07003KT P6SM VCSH SCT004 OVC009
     FM211700 09003KT 6SM BR VCSH OVC015
     FM220200 10003KT 4SM -RA BR BKN006=



000
FTUS42 KJAX 210500
TAFSSI
TAF
KSSI 210534Z 2106/2206 03009KT 6SM BR VCSH OVC006
     FM210800 03007KT 4SM -SHRA BR OVC005
     FM212300 03004KT 4SM -RA BR OVC005=



000
FTUS42 KJAX 210500
TAFJAX
TAF
KJAX 210534Z 2106/2206 03007KT 6SM BR VCSH OVC006
     FM210900 04005KT 5SM BR VCSH OVC005
     FM211800 05005KT 6SM BR VCSH SCT005 OVC010
     FM212200 04004KT 5SM -RA BR BKN007=



000
FTUS42 KJAX 210300 AAB
TAFSSI
TAF AMD
KSSI 210343Z 2104/2124 02011G18KT P6SM VCSH OVC007
     FM210600 01008KT 6SM BR VCSH OVC006
     FM210900 03007KT 3SM -RA BR OVC005=



000
FTUS42 KJAX 210300 AAB
TAFSSI
TAF AMD
KSSI 210343Z 2104/2124 02011G18KT P6SM VCSH OVC007
     FM210600 01008KT 6SM BR VCSH OVC006
     FM210900 03007KT 3SM -RA BR OVC005=



000
FTUS42 KJAX 210300 AAA
TAFGNV
TAF AMD
KGNV 210339Z 2104/2124 06006KT P6SM VCSH SCT008 SCT025 BKN080
     FM210500 03003KT 6SM BR OVC007
     FM210900 00000KT 3SM BR OVC004
     FM211400 09005KT P6SM SCT004 BKN020 OVC150=



000
FTUS42 KJAX 210300 AAA
TAFGNV
TAF AMD
KGNV 210339Z 2104/2124 06006KT P6SM VCSH SCT008 SCT025 BKN080
     FM210500 03003KT 6SM BR OVC007
     FM210900 00000KT 3SM BR OVC004
     FM211400 09005KT P6SM SCT004 BKN020 OVC150=



000
FTUS42 KJAX 210300 AAB
TAFJAX
TAF AMD
KJAX 210329Z 2103/2124 03007KT P6SM VCSH OVC006
     FM210800 01005KT 5SM BR VCSH OVC005
      TEMPO 2109/2113 3SM -RA BR
     FM211500 04006KT P6SM VCSH SCT005 BKN015 OVC150=



000
FTUS42 KJAX 210300 AAB
TAFJAX
TAF AMD
KJAX 210329Z 2103/2124 03007KT P6SM VCSH OVC006
     FM210800 01005KT 5SM BR VCSH OVC005
      TEMPO 2109/2113 3SM -RA BR
     FM211500 04006KT P6SM VCSH SCT005 BKN015 OVC150=



000
FTUS42 KJAX 210200 AAA
TAFJAX
TAF AMD
KJAX 210207Z 2102/2124 04007KT P6SM OVC005
     FM210800 01005KT 5SM BR VCSH OVC004
      TEMPO 2109/2113 3SM -RA BR
     FM211500 04006KT P6SM VCSH SCT005 BKN015 OVC150=



000
FTUS42 KJAX 210100 AAA
TAFSSI
TAF AMD
KSSI 210117Z 2101/2124 02010KT P6SM VCSH BKN007 OVC080
     FM210500 01008KT 6SM BR VCSH OVC006
     FM210900 03007KT 3SM -RA BR OVC005=



000
FTUS42 KJAX 210100 AAA
TAFSSI
TAF AMD
KSSI 210117Z 2101/2124 02010KT P6SM VCSH BKN007 OVC080
     FM210500 01008KT 6SM BR VCSH OVC006
     FM210900 03007KT 3SM -RA BR OVC005=



000
FTUS42 KJAX 202300 RRA
TAFGNV
TAF
KGNV 202343Z 2100/2124 07003KT P6SM FEW040 BKN080 OVC120
     FM210300 04003KT P6SM SCT008 OVC100
     FM210400 03003KT P6SM OVC007
     FM210900 00000KT 3SM BR OVC004
     FM211400 09005KT P6SM SCT004 BKN020 OVC150=



000
FTUS42 KJAX 202300 RRA
TAFJAX
TAF
KJAX 202343Z 2100/2124 04009KT P6SM BKN008 OVC080
     FM210100 02006KT P6SM OVC006
     FM210800 01005KT 5SM BR VCSH OVC005
      TEMPO 2109/2113 3SM -RA BR
     FM211500 04006KT P6SM VCSH SCT005 BKN015 OVC150=



000
FTUS42 KJAX 202300 RRA
TAFSSI
TAF
KSSI 202343Z 2100/2124 02011G16KT P6SM OVC007
     FM210500 01008KT 6SM BR VCSH OVC005
     FM210900 03007KT 3SM -RA BR OVC004=



000
FTUS42 KJAX 202300 RRA
TAFCRG
TAF
KCRG 202343Z 2100/2124 03010KT P6SM OVC006
     FM210800 02007KT 5SM BR VCSH OVC005
      TEMPO 2109/2113 3SM -RA BR
     FM211700 03008KT P6SM VCSH SCT005 BKN015 OVC150=



000
FTUS42 KJAX 202300 AAA
TAFJAX
TAF AMD
KJAX 202315Z 2023/2118 04009KT P6SM SCT008 BKN080
     FM210000 03006KT P6SM BKN008 OVC030
     FM210100 02004KT P6SM OVC006
     FM210600 01005KT 5SM BR VCSH OVC005
      TEMPO 2109/2113 3SM -RA BR=



000
FTUS42 KJAX 202300 AAA
TAFCRG
TAF AMD
KCRG 202312Z 2023/2118 03010KT P6SM OVC006
     FM210600 01007KT 5SM BR VCSH OVC005
      TEMPO 2109/2113 3SM -RA BR=



000
FTUS42 KJAX 202100 AAC
TAFSSI
TAF AMD
KSSI 202152Z 2022/2118 02010KT P6SM BKN009 OVC080
     FM210500 02007KT 6SM BR VCSH BKN006 OVC012
      TEMPO 2108/2112 5SM -RA BR OVC005=



000
FTUS42 KJAX 202100 AAB
TAFSSI
TAF AMD
KSSI 202123Z 2021/2118 03008KT P6SM SCT009 OVC080
     FM202300 02010KT P6SM OVC008
     FM210300 02008KT 6SM BR VCSH OVC006=



000
FTUS42 KJAX 201900 AAA
TAFSSI
TAF AMD
KSSI 201925Z 2019/2118 01010KT P6SM OVC080
     FM202100 02010KT P6SM BKN008 OVC080
     FM202300 02010KT P6SM OVC008
     FM210300 02008KT 6SM BR VCSH OVC006=



000
FTUS42 KJAX 201700
TAFJAX
TAF
KJAX 201727Z 2018/2118 04008KT P6SM BKN035 OVC090
     FM202300 03006KT P6SM BKN008 OVC030
     FM210200 03006KT P6SM OVC008
     FM210500 02004KT 5SM BR VCSH OVC006=



000
FTUS42 KJAX 201700
TAFGNV
TAF
KGNV 201727Z 2018/2118 VRB05KT P6SM BKN090
     FM202300 03004KT P6SM BKN035 OVC080
     FM210400 03002KT P6SM BKN008 OVC030
     FM210700 02002KT 5SM BR VCSH OVC008
     FM211000 02002KT 3SM BR VCSH OVC005=



000
FTUS42 KJAX 201700
TAFCRG
TAF
KCRG 201727Z 2018/2118 04008KT P6SM BKN035 OVC090
     FM202300 03006KT P6SM BKN008 OVC030
     FM210200 03006KT P6SM OVC008
     FM210500 02004KT 5SM BR VCSH OVC006=



000
FTUS42 KJAX 201700
TAFSSI
TAF
KSSI 201727Z 2018/2118 01010KT P6SM OVC080
     FM202000 02010KT P6SM BKN008 OVC080
     FM202300 02010KT P6SM OVC008
     FM210300 02008KT 6SM BR VCSH OVC006=



000
FTUS42 KJAX 201100
TAFCRG
TAF
KCRG 201120Z 2012/2112 36003KT P6SM BKN100 OVC150
     FM201500 04006KT P6SM SCT050 BKN100 OVC150
     FM210300 04005KT 5SM BR OVC010=



000
FTUS42 KJAX 201100
TAFGNV
TAF
KGNV 201120Z 2012/2112 00000KT P6SM BKN100 BKN150
     FM201500 06004KT P6SM SCT050 BKN100 BKN150
     FM210500 04003KT 4SM BR OVC010=



000
FTUS42 KJAX 201100
TAFJAX
TAF
KJAX 201120Z 2012/2112 01003KT P6SM BKN100 OVC150
     FM201500 03006KT P6SM SCT050 BKN100 OVC150
     FM210400 03003KT 5SM BR OVC010=



000
FTUS42 KJAX 201100
TAFSSI
TAF
KSSI 201120Z 2012/2112 02006KT P6SM BKN050 OVC100
     FM210200 02006KT 6SM BR OVC010=



000
FTUS42 KJAX 200500
TAFSSI
TAF
KSSI 200521Z 2006/2106 02003KT P6SM SCT050 BKN100 OVC150
     FM200800 03005KT P6SM VCSH BKN050 OVC100
     FM201600 03006KT P6SM BKN050 BKN100=



000
FTUS42 KJAX 200500
TAFGNV
TAF
KGNV 200521Z 2006/2106 00000KT P6SM SCT050 BKN100 BKN150
     FM201500 06004KT P6SM SCT050 BKN100 BKN150=



000
FTUS42 KJAX 200500
TAFJAX
TAF
KJAX 200521Z 2006/2106 00000KT P6SM BKN100 OVC150
     FM201500 04005KT P6SM SCT050 BKN100 OVC150=



000
FTUS42 KJAX 200500
TAFCRG
TAF
KCRG 200521Z 2006/2106 00000KT P6SM BKN100 OVC150
     FM201500 04005KT P6SM SCT050 BKN100 OVC150=



000
FTUS42 KJAX 192300 RRA
TAFGNV
TAF
KGNV 192341Z 2000/2024 00000KT P6SM SCT050 BKN100 BKN150
     FM201500 05005KT P6SM SCT050 BKN100 BKN150=



000
FTUS42 KJAX 192300 RRA
TAFCRG
TAF
KCRG 192341Z 2000/2024 00000KT P6SM SCT050 BKN100 OVC150
     FM201500 05005KT P6SM SCT050 BKN100 OVC150=



000
FTUS42 KJAX 192300 RRA
TAFJAX
TAF
KJAX 192341Z 2000/2024 00000KT P6SM SCT050 BKN100 OVC150
     FM201500 05005KT P6SM SCT050 BKN100 OVC150=



000
FTUS42 KJAX 192300 RRA
TAFSSI
TAF
KSSI 192341Z 2000/2024 04002KT P6SM SCT050 BKN100 OVC150
     FM200800 04005KT P6SM VCSH BKN050 OVC100=



000
FTUS42 KJAX 191700
TAFJAX
TAF
KJAX 191732Z 1918/2018 08004KT P6SM SCT100 BKN200
     FM200200 00000KT P6SM SCT050 BKN100 OVC150
     FM200900 00000KT 5SM BR SCT050 BKN100 OVC150
     FM201500 05004KT P6SM SCT050 BKN100 OVC150=



000
FTUS42 KJAX 191700
TAFCRG
TAF
KCRG 191732Z 1918/2018 08006KT P6SM SCT100 BKN200
     FM200200 00000KT P6SM SCT050 BKN100 OVC150
     FM200900 00000KT 5SM BR SCT050 BKN100 OVC150
     FM201500 05004KT P6SM SCT050 BKN100 OVC150=



000
FTUS42 KJAX 191700
TAFSSI
TAF
KSSI 191732Z 1918/2018 07006KT P6SM SCT100 BKN200
     FM200100 04002KT P6SM SCT050 BKN100 OVC150
     FM200800 04004KT P6SM VCSH BKN050 OVC100=



000
FTUS42 KJAX 191700
TAFGNV
TAF
KGNV 191732Z 1918/2018 11004KT P6SM SCT100 BKN200
     FM200000 00000KT P6SM SCT050 BKN100 BKN150
     FM200900 00000KT 4SM BR SCT050 BKN100 BKN150
     FM201500 05004KT P6SM SCT050 BKN100 BKN150=



000
FTUS42 KJAX 191100
TAFJAX
TAF
KJAX 191120Z 1912/2012 00000KT P6SM BKN150 BKN250
     FM191500 04004KT P6SM SCT040 BKN200
     FM200200 00000KT P6SM SCT035 BKN100=



000
FTUS42 KJAX 191100
TAFCRG
TAF
KCRG 191120Z 1912/2012 00000KT P6SM BKN150 BKN250
     FM191500 05005KT P6SM SCT040 BKN200
     FM200200 00000KT P6SM SCT035 BKN100=



000
FTUS42 KJAX 191100
TAFGNV
TAF
KGNV 191120Z 1912/2012 00000KT P6SM FEW100 BKN200
     FM191500 06004KT P6SM FEW050 SCT100 BKN200
     FM192300 00000KT P6SM BKN100 BKN200=



000
FTUS42 KJAX 191100
TAFSSI
TAF
KSSI 191120Z 1912/2012 35003KT P6SM SCT100 BKN200
     FM191600 06006KT P6SM SCT040 BKN150
     FM200100 05003KT P6SM BKN070 BKN200=



000
FTUS42 KJAX 191000 AAA
TAFGNV
TAF AMD
KGNV 191014Z 1910/2006 00000KT P6SM FEW100 BKN200
     FM191500 06004KT P6SM FEW050 SCT100 BKN200=



000
FTUS42 KJAX 191000 AAA
TAFGNV
TAF AMD
KGNV 191014Z 1910/2006 00000KT P6SM FEW100 BKN200
     FM191500 06004KT P6SM FEW050 SCT100 BKN200=



000
FTUS42 KJAX 190500
TAFGNV
TAF
KGNV 190524Z 1906/2006 32002KT P6SM FEW100 BKN200
     FM190900 00000KT 5SM BR FEW100 BKN200
     FM191500 06004KT P6SM FEW050 SCT100 BKN200=



000
FTUS42 KJAX 190500
TAFSSI
TAF
KSSI 190524Z 1906/2006 31003KT P6SM SCT100 BKN200
     FM191600 06006KT P6SM SCT040 BKN200
     FM200100 05003KT P6SM BKN100 BKN300=



000
FTUS42 KJAX 190500
TAFJAX
TAF
KJAX 190524Z 1906/2006 00000KT P6SM BKN150 BKN250
     FM191500 04004KT P6SM SCT040 BKN200=



000
FTUS42 KJAX 190500
TAFCRG
TAF
KCRG 190524Z 1906/2006 00000KT P6SM BKN150 BKN250
     FM191500 04004KT P6SM SCT040 BKN200=



000
FTUS42 KJAX 182300
TAFSSI
TAF
KSSI 182331Z 1900/1924 VRB02KT P6SM FEW100 BKN200
     FM191800 08007KT P6SM SCT050 BKN200=



000
FTUS42 KJAX 182300
TAFGNV
TAF
KGNV 182331Z 1900/1924 00000KT P6SM FEW100 BKN200
     FM190900 00000KT 5SM BR FEW100 BKN200
     FM191500 VRB04KT P6SM FEW050 BKN200=



000
FTUS42 KJAX 182300
TAFJAX
TAF
KJAX 182331Z 1900/1924 00000KT P6SM FEW100 BKN200
     FM191500 VRB04KT P6SM FEW050 BKN200=



000
FTUS42 KJAX 182300
TAFCRG
TAF
KCRG 182331Z 1900/1924 00000KT P6SM FEW100 BKN200
     FM191500 VRB04KT P6SM FEW050 BKN200=



000
FTUS42 KJAX 181700
TAFSSI
TAF
KSSI 181721Z 1818/1918 VRB04KT P6SM BKN200
     FM182200 VRB03KT P6SM SCT250
     FM191400 05007KT P6SM SCT050 BKN200=



000
FTUS42 KJAX 181700
TAFJAX
TAF
KJAX 181721Z 1818/1918 VRB04KT P6SM BKN200
     FM182300 00000KT P6SM SCT200
     FM191500 02004KT P6SM FEW050 BKN200=



000
FTUS42 KJAX 181700
TAFGNV
TAF
KGNV 181721Z 1818/1918 30004KT P6SM BKN200
     FM182300 00000KT P6SM SCT200
     FM191500 05005KT P6SM FEW050 BKN200=



000
FTUS42 KJAX 181700
TAFCRG
TAF
KCRG 181721Z 1818/1918 VRB04KT P6SM BKN200
     FM182300 00000KT P6SM SCT200
     FM191500 03005KT P6SM FEW050 BKN200=



000
FTUS42 KJAX 181100
TAFSSI
TAF
KSSI 181120Z 1812/1912 31005KT P6SM BKN200
     FM182200 28003KT P6SM FEW080 SCT250=



000
FTUS42 KJAX 181100
TAFCRG
TAF
KCRG 181120Z 1812/1912 31005KT P6SM BKN200
     FM190000 VRB02KT P6SM FEW080 SCT250=



000
FTUS42 KJAX 181100
TAFJAX
TAF
KJAX 181120Z 1812/1912 30004KT P6SM BKN200
     FM190000 00000KT P6SM FEW080 SCT250=



000
FTUS42 KJAX 181100
TAFGNV
TAF
KGNV 181120Z 1812/1912 31004KT P6SM BKN200
     FM190000 00000KT P6SM FEW100 SCT250=



    US Dept of Commerce
    National Oceanic and Atmospheric Administration
    National Weather Service
    1325 East West Highway
    Silver Spring, MD 20910
    Page Author: NWS Internet Services Team
Disclaimer
Information Quality
Credits
Glossary
Privacy Policy
Freedom of Information Act (FOIA)
About Us
Career Opportunities